Iblea — IBFK — position and weather

sailwx.info

Track history (hours):
 
Tides and Currents Weather Stations Pressure Air Temp Water Temp Dewpoint Dewpoint Depression Visibility Wind Speed Wind Dir Waves Ship Positions

Iblea

Last reported at 2016-Sep-26 13:16 UTC. Time now 2016-Sep-26 22:32 UTC.
Position N 35°46' E 014°50'.

Length 176 m; draft 7.3 m.

Type: Ship (hazmat cat A). MMSI: 247087700.

Date/timePositionNaut miles runAvg speedWind from/ knotsBaromVisibWave heightAir tempDewpointWater temp
2016-Sep-26 13:16N 35°46' E 014°50'0 0.0
2016-Sep-25 17:25N 35°46' E 014°50'0 0.0
2016-Sep-25 16:28N 35°46' E 014°50'0 0.1
2016-Sep-25 15:28N 35°46' E 014°50'0 0.1
2016-Sep-25 12:13N 35°46' E 014°50'0 0.0
2016-Sep-25 11:16N 35°46' E 014°50'0 0.0
2016-Sep-25 09:16N 35°46' E 014°50'0 0.0
2016-Sep-25 07:16N 35°46' E 014°50'0 0.0
2016-Sep-25 00:19N 35°46' E 014°50'0 0.0
2016-Sep-24 22:31N 35°46' E 014°50'0 0.0
2016-Sep-24 19:31N 35°46' E 014°50'0 0.0
2016-Sep-24 18:31N 35°46' E 014°50'0 0.0
2016-Sep-24 16:04N 35°46' E 014°50'0 0.0
2016-Sep-24 14:25N 35°46' E 014°50'0 0.0
2016-Sep-24 12:31N 35°46' E 014°50'0 0.0
2016-Sep-24 10:22N 35°46' E 014°50'0 0.0
2016-Sep-24 09:13N 35°46' E 014°50'0 0.0
2016-Sep-24 01:04N 35°46' E 014°50'0 0.0
2016-Sep-23 19:31N 35°46' E 014°51'0 0.0
2016-Sep-23 17:22N 35°46' E 014°51'0 0.0
2016-Sep-23 16:07N 35°46' E 014°51'0 0.0
2016-Sep-23 13:16N 35°46' E 014°51'0 0.0
2016-Sep-23 09:31N 35°46' E 014°51'0 0.0
2016-Sep-23 06:28N 35°46' E 014°51'0 0.0
2016-Sep-23 04:25N 35°46' E 014°51'0 0.0
2016-Sep-23 02:22N 35°46' E 014°51'0 0.0
2016-Sep-23 01:22N 35°46' E 014°51'0 0.0
2016-Sep-23 00:31N 35°46' E 014°51'0 0.0
2016-Sep-22 23:25N 35°46' E 014°51'0 0.0
2016-Sep-22 20:16N 35°46' E 014°51'0 0.0
2016-Sep-22 12:31N 35°46' E 014°51'0 0.0
2016-Sep-22 04:25N 35°46' E 014°51'0 0.0
2016-Sep-22 03:28N 35°46' E 014°51'0 0.0
2016-Sep-22 00:13N 35°46' E 014°51'0 0.0
2016-Sep-21 23:28N 35°46' E 014°51'0 0.0
2016-Sep-21 22:25N 35°46' E 014°51'0 0.0
2016-Sep-21 19:31N 35°46' E 014°51'0 0.0
2016-Sep-21 16:16N 35°46' E 014°51'0 0.0
2016-Sep-21 09:28N 35°46' E 014°51'13 0.8
2016-Sep-20 17:33N 35°51' E 014°36'0 0.0
2016-Sep-20 14:32N 35°51' E 014°36'0 0.0
2016-Sep-20 13:32N 35°51' E 014°36'0 0.0
2016-Sep-20 10:32N 35°51' E 014°36'13 6.7
2016-Sep-20 08:32N 35°49' E 014°52'0 0.0
2016-Sep-19 18:04N 35°49' E 014°53'0 0.0
2016-Sep-19 16:10N 35°49' E 014°53'0 0.0
2016-Sep-19 14:19N 35°49' E 014°53'0 0.0
2016-Sep-19 11:19N 35°49' E 014°53'1 0.2
2016-Sep-19 06:03N 35°48' E 014°51'19 6.7
2016-Sep-19 03:17N 35°42' E 014°30'6 7.9
2016-Sep-19 02:33N 35°43' E 014°23'16 8.0
2016-Sep-19 00:33N 35°53' E 014°07'39 7.9
2016-Sep-18 19:33N 36°25' E 013°39'31 7.7
2016-Sep-18 15:33N 36°51' E 013°18'8 7.6
2016-Sep-18 14:33N 36°57' E 013°12'31 7.8
2016-Sep-18 10:32N 37°20' E 012°44'342 8.3
2016-Sep-16 17:24N 42°34' E 009°48'16 8.2
2016-Sep-16 15:30N 42°49' E 009°42'  
Track history (hours):
 
Tides and Currents Weather Stations Pressure Air Temp Water Temp Dewpoint Dewpoint Depression Visibility Wind Speed Wind Dir Waves Ship Positions

Iblea

Last reported at 2016-Sep-26 13:16 UTC. Time now 2016-Sep-26 22:32 UTC.
Position N 35°46' E 014°50'.

Length 176 m; draft 7.3 m.

Type: Ship (hazmat cat A). MMSI: 247087700.

Date/timePositionNaut miles runAvg speedWind from/ knotsBaromVisibWave heightAir tempDewpointWater temp
2016-Sep-26 13:16N 35°46' E 014°50'0 0.0
2016-Sep-25 17:25N 35°46' E 014°50'0 0.0
2016-Sep-25 16:28N 35°46' E 014°50'0 0.1
2016-Sep-25 15:28N 35°46' E 014°50'0 0.1
2016-Sep-25 12:13N 35°46' E 014°50'0 0.0
2016-Sep-25 11:16N 35°46' E 014°50'0 0.0
2016-Sep-25 09:16N 35°46' E 014°50'0 0.0
2016-Sep-25 07:16N 35°46' E 014°50'0 0.0
2016-Sep-25 00:19N 35°46' E 014°50'0 0.0
2016-Sep-24 22:31N 35°46' E 014°50'0 0.0
2016-Sep-24 19:31N 35°46' E 014°50'0 0.0
2016-Sep-24 18:31N 35°46' E 014°50'0 0.0
2016-Sep-24 16:04N 35°46' E 014°50'0 0.0
2016-Sep-24 14:25N 35°46' E 014°50'0 0.0
2016-Sep-24 12:31N 35°46' E 014°50'0 0.0
2016-Sep-24 10:22N 35°46' E 014°50'0 0.0
2016-Sep-24 09:13N 35°46' E 014°50'0 0.0
2016-Sep-24 01:04N 35°46' E 014°50'0 0.0
2016-Sep-23 19:31N 35°46' E 014°51'0 0.0
2016-Sep-23 17:22N 35°46' E 014°51'0 0.0
2016-Sep-23 16:07N 35°46' E 014°51'0 0.0
2016-Sep-23 13:16N 35°46' E 014°51'0 0.0
2016-Sep-23 09:31N 35°46' E 014°51'0 0.0
2016-Sep-23 06:28N 35°46' E 014°51'0 0.0
2016-Sep-23 04:25N 35°46' E 014°51'0 0.0
2016-Sep-23 02:22N 35°46' E 014°51'0 0.0
2016-Sep-23 01:22N 35°46' E 014°51'0 0.0
2016-Sep-23 00:31N 35°46' E 014°51'0 0.0
2016-Sep-22 23:25N 35°46' E 014°51'0 0.0
2016-Sep-22 20:16N 35°46' E 014°51'0 0.0
2016-Sep-22 12:31N 35°46' E 014°51'0 0.0
2016-Sep-22 04:25N 35°46' E 014°51'0 0.0
2016-Sep-22 03:28N 35°46' E 014°51'0 0.0
2016-Sep-22 00:13N 35°46' E 014°51'0 0.0
2016-Sep-21 23:28N 35°46' E 014°51'0 0.0
2016-Sep-21 22:25N 35°46' E 014°51'0 0.0
2016-Sep-21 19:31N 35°46' E 014°51'0 0.0
2016-Sep-21 16:16N 35°46' E 014°51'0 0.0
2016-Sep-21 09:28N 35°46' E 014°51'13 0.8
2016-Sep-20 17:33N 35°51' E 014°36'0 0.0
2016-Sep-20 14:32N 35°51' E 014°36'0 0.0
2016-Sep-20 13:32N 35°51' E 014°36'0 0.0
2016-Sep-20 10:32N 35°51' E 014°36'13 6.7
2016-Sep-20 08:32N 35°49' E 014°52'0 0.0
2016-Sep-19 18:04N 35°49' E 014°53'0 0.0
2016-Sep-19 16:10N 35°49' E 014°53'0 0.0
2016-Sep-19 14:19N 35°49' E 014°53'0 0.0
2016-Sep-19 11:19N 35°49' E 014°53'1 0.2
2016-Sep-19 06:03N 35°48' E 014°51'19 6.7
2016-Sep-19 03:17N 35°42' E 014°30'6 7.9
2016-Sep-19 02:33N 35°43' E 014°23'16 8.0
2016-Sep-19 00:33N 35°53' E 014°07'39 7.9
2016-Sep-18 19:33N 36°25' E 013°39'31 7.7
2016-Sep-18 15:33N 36°51' E 013°18'8 7.6
2016-Sep-18 14:33N 36°57' E 013°12'31 7.8
2016-Sep-18 10:32N 37°20' E 012°44'342 8.3
2016-Sep-16 17:24N 42°34' E 009°48'16 8.2
2016-Sep-16 15:30N 42°49' E 009°42'  

Dump ship's entire track history